Time;durP1;ratioP1;P1;durP2;ratioP2;P2;SDS_P1;SDS_P2;PMS_P1;PMS_P2;Temp;Humidity;BMP_temperature;BMP_pressure;BME280_temperature;BME280_humidity;BME280_pressure;Samples;Min_cycle;Max_cycle;Signal;HPM_P1;HPM_P2
2023/03/22 00:00:34;;;;;;;7.93;3.87;;;;;;;;;;5055993;28;20194;-78
2023/03/22 00:03:00;;;;;;;10.10;4.07;;;;;;;;;;5057042;28;20179;-78
2023/03/22 00:05:28;;;;;;;12.17;4.30;;;;;;;;;;5057123;28;20179;-78
2023/03/22 00:07:56;;;;;;;8.70;4.00;;;;;;;;;;5073892;28;20197;-78
2023/03/22 00:10:24;;;;;;;8.40;3.87;;;;;;;;;;5056823;28;20275;-78
2023/03/22 00:12:50;;;;;;;8.07;3.67;;;;;;;;;;5057182;28;20195;-78
2023/03/22 00:15:16;;;;;;;8.37;3.73;;;;;;;;;;5052910;28;20249;-78
2023/03/22 00:17:43;;;;;;;8.13;3.57;;;;;;;;;;5036351;28;20278;-80
2023/03/22 00:20:10;;;;;;;7.17;3.40;;;;;;;;;;5051524;28;20234;-80
2023/03/22 00:22:36;;;;;;;8.33;3.67;;;;;;;;;;5039765;28;20195;-80
2023/03/22 00:25:02;;;;;;;7.97;3.40;;;;;;;;;;5056229;28;20308;-80
2023/03/22 00:27:29;;;;;;;7.07;3.37;;;;;;;;;;5056315;28;20183;-80
2023/03/22 00:29:55;;;;;;;8.20;3.67;;;;;;;;;;5048635;28;20194;-80
2023/03/22 00:32:21;;;;;;;10.47;4.37;;;;;;;;;;5056611;28;20183;-80
2023/03/22 00:34:47;;;;;;;9.57;3.90;;;;;;;;;;5056595;28;20298;-80
2023/03/22 00:37:15;;;;;;;9.57;3.57;;;;;;;;;;5036069;28;20199;-80
2023/03/22 00:39:41;;;;;;;10.33;3.47;;;;;;;;;;5060018;28;20236;-80
2023/03/22 00:42:07;;;;;;;7.00;3.57;;;;;;;;;;5055914;28;20179;-80
2023/03/22 00:44:34;;;;;;;6.80;3.17;;;;;;;;;;5073982;28;20180;-80
2023/03/22 00:47:01;;;;;;;8.60;3.83;;;;;;;;;;5056372;28;20213;-80
2023/03/22 00:49:28;;;;;;;10.57;3.67;;;;;;;;;;5055897;28;20248;-80
2023/03/22 00:51:54;;;;;;;9.87;3.70;;;;;;;;;;5055953;28;20268;-80
2023/03/22 00:54:20;;;;;;;10.30;3.67;;;;;;;;;;5038926;28;20191;-80
2023/03/22 00:56:48;;;;;;;7.07;3.70;;;;;;;;;;5039675;28;20179;-80
2023/03/22 00:59:15;;;;;;;8.80;4.50;;;;;;;;;;5050290;28;20245;-80
2023/03/22 01:01:42;;;;;;;10.67;4.50;;;;;;;;;;5039155;28;20184;-80
2023/03/22 01:04:08;;;;;;;9.90;4.50;;;;;;;;;;5073206;28;20321;-80
2023/03/22 01:06:34;;;;;;;10.07;4.60;;;;;;;;;;5055755;28;20194;-78
2023/03/22 01:09:00;;;;;;;9.13;5.00;;;;;;;;;;5055176;28;20398;-78
2023/03/22 01:11:27;;;;;;;9.57;5.00;;;;;;;;;;5039386;28;20225;-78
2023/03/22 01:13:54;;;;;;;9.50;5.27;;;;;;;;;;5055721;28;20229;-78
2023/03/22 01:16:21;;;;;;;7.30;4.80;;;;;;;;;;5055375;28;20207;-78
2023/03/22 01:18:47;;;;;;;8.53;4.77;;;;;;;;;;5056862;28;20199;-78
2023/03/22 01:21:13;;;;;;;9.20;4.80;;;;;;;;;;5059718;28;20180;-78
2023/03/22 01:23:39;;;;;;;8.97;4.60;;;;;;;;;;5056868;28;20188;-78
2023/03/22 01:26:05;;;;;;;9.57;5.30;;;;;;;;;;5069012;28;20282;-78
2023/03/22 01:28:31;;;;;;;12.90;5.65;;;;;;;;;;5059170;28;20411;-78
2023/03/22 01:31:00;;;;;;;10.90;5.45;;;;;;;;;;5075395;28;20414;-77
2023/03/22 01:33:26;;;;;;;8.97;5.10;;;;;;;;;;5073438;28;20183;-78
2023/03/22 01:35:52;;;;;;;9.87;4.70;;;;;;;;;;5034237;28;20204;-78
2023/03/22 01:38:19;;;;;;;12.77;4.83;;;;;;;;;;5056213;28;20180;-78
2023/03/22 01:40:45;;;;;;;9.25;5.00;;;;;;;;;;5055386;28;20412;-84
2023/03/22 01:43:13;;;;;;;10.77;4.43;;;;;;;;;;5068783;28;20186;-84
2023/03/22 01:45:41;;;;;;;9.20;4.47;;;;;;;;;;5075680;28;20198;-84
2023/03/22 01:48:07;;;;;;;13.13;4.53;;;;;;;;;;5059333;28;20276;-84
2023/03/22 01:50:33;;;;;;;10.83;5.10;;;;;;;;;;5058986;28;20442;-84
2023/03/22 01:53:00;;;;;;;10.00;4.95;;;;;;;;;;5042181;28;20419;-84
2023/03/22 01:55:26;;;;;;;11.35;5.50;;;;;;;;;;5041710;28;20462;-84
2023/03/22 01:57:53;;;;;;;9.67;5.20;;;;;;;;;;5042883;28;20186;-78
2023/03/22 02:00:19;;;;;;;10.40;5.22;;;;;;;;;;5058906;28;20458;-78
2023/03/22 02:02:47;;;;;;;12.52;6.35;;;;;;;;;;5075858;22;20410;-78
2023/03/22 02:05:13;;;;;;;11.13;6.32;;;;;;;;;;5034817;28;20429;-78
2023/03/22 02:07:40;;;;;;;11.90;6.40;;;;;;;;;;5017821;28;20410;-77
2023/03/22 02:10:14;;;;;;;12.82;6.65;;;;;;;;;;5018166;28;20420;-78
2023/03/22 02:13:00;;;;;;;11.50;6.63;;;;;;;;;;5018008;28;20409;-78
2023/03/22 02:15:37;;;;;;;12.20;6.40;;;;;;;;;;5016933;28;20485;-77
2023/03/22 02:18:22;;;;;;;10.65;6.47;;;;;;;;;;5035448;28;20426;-77
2023/03/22 02:21:07;;;;;;;10.90;6.50;;;;;;;;;;5017865;28;20456;-78
2023/03/22 02:23:36;;;;;;;9.55;6.43;;;;;;;;;;5035119;28;20459;-78
2023/03/22 02:26:08;;;;;;;11.67;7.20;;;;;;;;;;5017601;28;20425;-78
2023/03/22 02:28:43;;;;;;;11.40;6.47;;;;;;;;;;5018758;28;20177;-78
2023/03/22 02:31:15;;;;;;;11.20;7.20;;;;;;;;;;5035978;28;20185;-78
2023/03/22 02:33:41;;;;;;;13.10;8.63;;;;;;;;;;5006721;28;20419;-78
2023/03/22 02:36:18;;;;;;;13.68;10.27;;;;;;;;;;4998871;28;20466;-78
2023/03/22 02:38:47;;;;;;;16.00;11.35;;;;;;;;;;5017577;28;20424;-77
2023/03/22 02:41:16;;;;;;;16.40;12.13;;;;;;;;;;5035294;28;20397;-77
2023/03/22 02:43:53;;;;;;;15.60;12.80;;;;;;;;;;5017926;28;20414;-78
2023/03/22 02:46:22;;;;;;;16.25;12.70;;;;;;;;;;5018373;28;20412;-80
2023/03/22 02:48:51;;;;;;;16.30;13.33;;;;;;;;;;5017375;28;20449;-80
2023/03/22 02:51:20;;;;;;;16.38;12.55;;;;;;;;;;5024136;28;20423;-80
2023/03/22 02:53:49;;;;;;;18.52;13.82;;;;;;;;;;5013535;28;20498;-80
2023/03/22 02:56:26;;;;;;;17.50;14.10;;;;;;;;;;5017339;28;20475;-80
2023/03/22 02:58:54;;;;;;;15.68;13.52;;;;;;;;;;5035664;28;20465;-80
2023/03/22 03:01:26;;;;;;;18.27;14.52;;;;;;;;;;5034354;28;20456;-80
2023/03/22 03:03:54;;;;;;;18.35;14.85;;;;;;;;;;5013012;28;20431;-78
2023/03/22 03:06:24;;;;;;;17.02;14.63;;;;;;;;;;5032787;28;20417;-78
2023/03/22 03:08:52;;;;;;;17.38;14.32;;;;;;;;;;5017726;28;20422;-78
2023/03/22 03:11:18;;;;;;;16.70;14.98;;;;;;;;;;5016844;28;20433;-78
2023/03/22 03:13:46;;;;;;;17.30;15.48;;;;;;;;;;5034504;28;20417;-78
2023/03/22 03:16:16;;;;;;;19.63;15.45;;;;;;;;;;5034592;28;20429;-78
2023/03/22 03:18:45;;;;;;;16.60;13.13;;;;;;;;;;5017304;28;20445;-78
2023/03/22 03:21:20;;;;;;;16.38;14.13;;;;;;;;;;5016663;28;20436;-78
2023/03/22 03:23:47;;;;;;;17.45;15.00;;;;;;;;;;5016260;28;20469;-78
2023/03/22 03:26:33;;;;;;;16.50;14.70;;;;;;;;;;5016226;28;20417;-78
2023/03/22 03:29:02;;;;;;;15.77;14.07;;;;;;;;;;5015747;28;20421;-78
2023/03/22 03:31:44;;;;;;;16.67;14.98;;;;;;;;;;5016374;28;20445;-78
2023/03/22 03:34:17;;;;;;;17.60;15.73;;;;;;;;;;5015828;28;20424;-78
2023/03/22 03:36:57;;;;;;;15.15;13.57;;;;;;;;;;5016964;28;20426;-77
2023/03/22 03:39:25;;;;;;;15.23;11.57;;;;;;;;;;5015866;28;20230;-78
2023/03/22 03:41:52;;;;;;;14.95;13.00;;;;;;;;;;5015296;28;20405;-78
2023/03/22 03:44:19;;;;;;;14.40;12.68;;;;;;;;;;5005241;28;20416;-78
2023/03/22 03:46:45;;;;;;;13.02;11.30;;;;;;;;;;5015816;28;20418;-77
2023/03/22 03:49:12;;;;;;;13.38;11.70;;;;;;;;;;5015083;28;20443;-78
2023/03/22 03:51:49;;;;;;;13.20;11.13;;;;;;;;;;5033823;28;20402;-77
2023/03/22 03:54:15;;;;;;;14.30;10.20;;;;;;;;;;5015661;28;20440;-78
2023/03/22 03:56:41;;;;;;;12.02;10.50;;;;;;;;;;4996532;28;20453;-78
2023/03/22 03:59:08;;;;;;;15.07;11.18;;;;;;;;;;4998839;28;20449;-78
2023/03/22 04:01:34;;;;;;;13.57;10.13;;;;;;;;;;4996261;28;20505;-78
2023/03/22 04:04:00;;;;;;;12.27;10.15;;;;;;;;;;4999751;28;20457;-78
2023/03/22 04:06:26;;;;;;;11.45;10.13;;;;;;;;;;5034088;28;20424;-78
2023/03/22 04:08:52;;;;;;;10.95;9.63;;;;;;;;;;5013964;28;20508;-78
2023/03/22 04:11:19;;;;;;;11.13;9.38;;;;;;;;;;5014159;28;20442;-78
2023/03/22 04:13:45;;;;;;;12.05;9.20;;;;;;;;;;5014588;28;20434;-78
2023/03/22 04:16:11;;;;;;;13.10;8.73;;;;;;;;;;5033593;28;20441;-78
2023/03/22 04:18:38;;;;;;;12.90;9.38;;;;;;;;;;5015794;28;20409;-78
2023/03/22 04:21:04;;;;;;;11.18;8.85;;;;;;;;;;5022584;28;20435;-78
2023/03/22 04:23:32;;;;;;;10.63;8.35;;;;;;;;;;4994301;28;20423;-78
2023/03/22 04:25:58;;;;;;;10.15;8.40;;;;;;;;;;4996851;28;20426;-83
2023/03/22 04:28:25;;;;;;;11.38;8.40;;;;;;;;;;5022950;28;20413;-84
2023/03/22 04:30:51;;;;;;;10.30;8.23;;;;;;;;;;5031720;28;20427;-83
2023/03/22 04:33:18;;;;;;;11.40;8.30;;;;;;;;;;5016103;28;20413;-83
2023/03/22 04:35:48;;;;;;;12.18;8.70;;;;;;;;;;5012786;28;20429;-83
2023/03/22 04:38:15;;;;;;;10.30;7.97;;;;;;;;;;4991706;28;20431;-84
2023/03/22 04:40:45;;;;;;;10.32;8.00;;;;;;;;;;4998832;28;20422;-83
2023/03/22 04:43:11;;;;;;;10.70;8.07;;;;;;;;;;5015627;28;20413;-78
2023/03/22 04:45:37;;;;;;;9.85;8.27;;;;;;;;;;4999061;28;20413;-78
2023/03/22 04:48:06;;;;;;;10.70;7.70;;;;;;;;;;4999293;28;20422;-78
2023/03/22 04:50:32;;;;;;;9.82;7.40;;;;;;;;;;5032782;28;20426;-78
2023/03/22 04:52:58;;;;;;;9.55;7.40;;;;;;;;;;5016039;28;20417;-78
2023/03/22 04:55:26;;;;;;;10.13;7.47;;;;;;;;;;5003400;28;20433;-78
2023/03/22 04:57:53;;;;;;;9.68;7.10;;;;;;;;;;5019843;28;20409;-78
2023/03/22 05:00:20;;;;;;;11.48;7.50;;;;;;;;;;5000077;28;20422;-78
2023/03/22 05:02:47;;;;;;;10.10;7.05;;;;;;;;;;4999866;28;20414;-78
2023/03/22 05:05:13;;;;;;;9.65;7.00;;;;;;;;;;5016965;28;20477;-78
2023/03/22 05:07:39;;;;;;;11.90;7.22;;;;;;;;;;4998226;28;20425;-78
2023/03/22 05:10:06;;;;;;;11.40;7.20;;;;;;;;;;5003643;28;20437;-78
2023/03/22 05:12:32;;;;;;;7.88;6.75;;;;;;;;;;5003638;28;20513;-78
2023/03/22 05:14:59;;;;;;;9.13;6.60;;;;;;;;;;5002861;28;20521;-78
2023/03/22 05:17:25;;;;;;;11.23;6.60;;;;;;;;;;5019563;28;20429;-83
2023/03/22 05:19:51;;;;;;;9.90;7.00;;;;;;;;;;5019154;28;20410;-83
2023/03/22 05:22:18;;;;;;;9.53;6.10;;;;;;;;;;5003728;28;20275;-83
2023/03/22 05:24:44;;;;;;;8.50;5.85;;;;;;;;;;5019611;28;20409;-83
2023/03/22 05:27:13;;;;;;;10.90;6.30;;;;;;;;;;5019600;28;20493;-83
2023/03/22 05:29:43;;;;;;;11.50;6.53;;;;;;;;;;5019534;28;20413;-83
2023/03/22 05:32:10;;;;;;;9.77;6.40;;;;;;;;;;5018432;28;20421;-84
2023/03/22 05:34:36;;;;;;;9.40;6.45;;;;;;;;;;5002817;28;20466;-80
2023/03/22 05:37:03;;;;;;;11.27;6.40;;;;;;;;;;5002846;28;20414;-80
2023/03/22 05:39:29;;;;;;;13.05;6.22;;;;;;;;;;5035781;28;20447;-81
2023/03/22 05:41:55;;;;;;;8.90;6.00;;;;;;;;;;5018858;28;20484;-81
2023/03/22 05:44:21;;;;;;;11.00;6.22;;;;;;;;;;5002470;28;20500;-81
2023/03/22 05:46:47;;;;;;;10.13;5.93;;;;;;;;;;5037042;28;20414;-81
2023/03/22 05:49:13;;;;;;;9.93;6.00;;;;;;;;;;5036254;28;20551;-81
2023/03/22 05:51:40;;;;;;;9.13;5.47;;;;;;;;;;5035756;28;20405;-80
2023/03/22 05:54:07;;;;;;;11.02;6.00;;;;;;;;;;4991373;28;20423;-80
2023/03/22 05:56:34;;;;;;;9.60;5.10;;;;;;;;;;4983853;28;20219;-80
2023/03/22 05:59:00;;;;;;;12.53;5.87;;;;;;;;;;5009129;28;20428;-80
2023/03/22 06:01:26;;;;;;;12.80;5.68;;;;;;;;;;5034969;28;20402;-80
2023/03/22 06:03:52;;;;;;;10.25;4.97;;;;;;;;;;5035246;28;20384;-80
2023/03/22 06:06:18;;;;;;;14.60;5.88;;;;;;;;;;4998413;28;20431;-84
2023/03/22 06:08:44;;;;;;;14.00;5.80;;;;;;;;;;5002365;28;20495;-84
2023/03/22 06:11:10;;;;;;;9.43;5.20;;;;;;;;;;5017203;28;20425;-83
2023/03/22 06:13:36;;;;;;;10.38;5.43;;;;;;;;;;5015030;28;20430;-83
2023/03/22 06:16:03;;;;;;;13.57;5.95;;;;;;;;;;4998393;28;20461;-84
2023/03/22 06:18:29;;;;;;;11.80;5.25;;;;;;;;;;4993414;28;20420;-84
2023/03/22 06:20:55;;;;;;;9.00;4.75;;;;;;;;;;4988915;28;20524;-83
2023/03/22 06:23:21;;;;;;;8.52;5.10;;;;;;;;;;5017162;28;20430;-80
2023/03/22 06:25:47;;;;;;;10.23;5.20;;;;;;;;;;5000013;28;20430;-80
2023/03/22 06:28:16;;;;;;;8.52;5.18;;;;;;;;;;5001707;28;20421;-80
2023/03/22 06:30:45;;;;;;;10.00;4.90;;;;;;;;;;4983253;28;20181;-81
2023/03/22 06:33:11;;;;;;;9.23;4.30;;;;;;;;;;5012335;28;20177;-81
2023/03/22 06:35:37;;;;;;;8.20;4.30;;;;;;;;;;5018157;28;20436;-81
2023/03/22 06:38:03;;;;;;;9.03;4.57;;;;;;;;;;4987850;28;20181;-81
2023/03/22 06:40:29;;;;;;;10.00;4.40;;;;;;;;;;5009942;28;20184;-78
2023/03/22 06:42:55;;;;;;;9.93;4.60;;;;;;;;;;4994617;28;20422;-79
2023/03/22 06:45:21;;;;;;;8.30;4.10;;;;;;;;;;4993939;28;20181;-77
2023/03/22 06:47:49;;;;;;;10.17;4.20;;;;;;;;;;5029049;28;20193;-78
2023/03/22 06:50:15;;;;;;;10.90;4.53;;;;;;;;;;5027903;28;20425;-79
2023/03/22 06:52:41;;;;;;;11.00;4.43;;;;;;;;;;5002029;28;20530;-79
2023/03/22 06:55:07;;;;;;;10.10;4.38;;;;;;;;;;5007439;28;20438;-78
2023/03/22 06:57:33;;;;;;;11.05;4.00;;;;;;;;;;5014271;28;20486;-79
2023/03/22 06:59:59;;;;;;;10.10;4.20;;;;;;;;;;5014232;28;20451;-78
2023/03/22 07:02:25;;;;;;;8.43;4.07;;;;;;;;;;4999891;28;20433;-79
2023/03/22 07:04:51;;;;;;;11.63;3.90;;;;;;;;;;4997855;28;20241;-79
2023/03/22 07:07:17;;;;;;;8.77;4.30;;;;;;;;;;4981371;28;20423;-79
2023/03/22 07:09:43;;;;;;;8.30;4.22;;;;;;;;;;4997271;28;20465;-79
2023/03/22 07:12:09;;;;;;;8.07;3.73;;;;;;;;;;5014262;28;20200;-78
2023/03/22 07:14:35;;;;;;;10.03;3.50;;;;;;;;;;5017708;28;20238;-79
2023/03/22 07:17:01;;;;;;;10.07;4.17;;;;;;;;;;5001086;28;20418;-79
2023/03/22 07:19:28;;;;;;;8.07;3.67;;;;;;;;;;5010571;28;20424;-79
2023/03/22 07:21:54;;;;;;;10.30;3.90;;;;;;;;;;4989688;28;20191;-78
2023/03/22 07:24:20;;;;;;;7.07;3.47;;;;;;;;;;5014402;28;20186;-78
2023/03/22 07:26:46;;;;;;;9.57;4.30;;;;;;;;;;4998095;28;20235;-78
2023/03/22 07:29:12;;;;;;;10.60;4.10;;;;;;;;;;5013546;28;20197;-78
2023/03/22 07:31:38;;;;;;;8.60;4.20;;;;;;;;;;5000644;28;20189;-83
2023/03/22 07:34:05;;;;;;;9.37;4.07;;;;;;;;;;5019640;28;20200;-84
2023/03/22 07:36:31;;;;;;;8.80;3.87;;;;;;;;;;5017381;28;20213;-84
2023/03/22 07:38:57;;;;;;;9.00;3.93;;;;;;;;;;5016874;28;20191;-84
2023/03/22 07:41:24;;;;;;;12.20;4.17;;;;;;;;;;5012270;28;20220;-84
2023/03/22 07:43:50;;;;;;;13.17;5.03;;;;;;;;;;5000013;28;20189;-83
2023/03/22 07:46:16;;;;;;;11.97;4.20;;;;;;;;;;5000463;28;20222;-84
2023/03/22 07:48:42;;;;;;;8.75;4.63;;;;;;;;;;5000372;28;20425;-83
2023/03/22 07:51:08;;;;;;;11.77;5.00;;;;;;;;;;5016752;28;20425;-83
2023/03/22 07:53:35;;;;;;;7.97;4.27;;;;;;;;;;5000703;28;20196;-83
2023/03/22 07:56:02;;;;;;;9.57;4.00;;;;;;;;;;5016918;28;20219;-83
2023/03/22 07:58:28;;;;;;;9.20;4.40;;;;;;;;;;5007610;28;20295;-83
2023/03/22 08:00:54;;;;;;;9.70;3.93;;;;;;;;;;4988249;28;20239;-83
2023/03/22 08:03:21;;;;;;;8.93;4.33;;;;;;;;;;5000939;28;20196;-84
2023/03/22 08:05:47;;;;;;;10.17;4.50;;;;;;;;;;5016904;28;20225;-83
2023/03/22 08:08:13;;;;;;;9.07;4.10;;;;;;;;;;4999872;28;20275;-82
2023/03/22 08:10:39;;;;;;;13.20;4.77;;;;;;;;;;5032549;28;20257;-82
2023/03/22 08:13:06;;;;;;;9.10;4.40;;;;;;;;;;5015893;28;20220;-82
2023/03/22 08:15:32;;;;;;;8.03;4.03;;;;;;;;;;5015857;28;20213;-82
2023/03/22 08:17:59;;;;;;;8.33;4.00;;;;;;;;;;5000484;28;20271;-83
2023/03/22 08:20:26;;;;;;;11.37;3.77;;;;;;;;;;4997463;28;20200;-84
2023/03/22 08:22:53;;;;;;;10.35;4.65;;;;;;;;;;5003779;28;20445;-84
2023/03/22 08:25:19;;;;;;;11.20;4.63;;;;;;;;;;5032222;28;20203;-84
2023/03/22 08:27:46;;;;;;;9.53;4.40;;;;;;;;;;5023556;28;20473;-85
2023/03/22 08:30:12;;;;;;;11.93;4.60;;;;;;;;;;5016397;28;20456;-85
2023/03/22 08:32:38;;;;;;;11.33;4.27;;;;;;;;;;5000290;28;20177;-86
2023/03/22 08:35:05;;;;;;;9.20;3.97;;;;;;;;;;5000252;28;20265;-85
2023/03/22 08:37:32;;;;;;;13.93;4.73;;;;;;;;;;5016942;28;20223;-82
2023/03/22 08:39:58;;;;;;;8.37;4.40;;;;;;;;;;5000327;28;20183;-82
2023/03/22 08:42:24;;;;;;;8.87;4.37;;;;;;;;;;5034207;28;20200;-82
2023/03/22 08:44:51;;;;;;;11.43;4.50;;;;;;;;;;4988436;28;20209;-82
2023/03/22 08:47:17;;;;;;;11.47;4.80;;;;;;;;;;5028588;28;20185;-80
2023/03/22 08:49:43;;;;;;;11.90;4.93;;;;;;;;;;5016367;28;20191;-80
2023/03/22 08:52:10;;;;;;;13.00;4.90;;;;;;;;;;4996792;28;20193;-79
2023/03/22 08:54:37;;;;;;;10.00;4.83;;;;;;;;;;5011662;28;20189;-77
2023/03/22 08:57:03;;;;;;;9.50;4.80;;;;;;;;;;5033544;28;20256;-77
2023/03/22 08:59:29;;;;;;;12.77;5.27;;;;;;;;;;5016879;28;20223;-79
2023/03/22 09:01:55;;;;;;;10.80;4.90;;;;;;;;;;5015959;28;20291;-79
2023/03/22 09:04:21;;;;;;;11.57;4.80;;;;;;;;;;5016358;28;20180;-79
2023/03/22 09:06:47;;;;;;;12.27;4.67;;;;;;;;;;5000453;28;20263;-79
2023/03/22 09:09:13;;;;;;;11.30;4.73;;;;;;;;;;5016134;28;20327;-79
2023/03/22 09:11:41;;;;;;;11.07;4.47;;;;;;;;;;5016299;28;20268;-81
2023/03/22 09:14:07;;;;;;;12.90;4.57;;;;;;;;;;5016229;28;20256;-79
2023/03/22 09:16:33;;;;;;;9.60;4.10;;;;;;;;;;5016429;28;20213;-79
2023/03/22 09:19:01;;;;;;;11.80;4.03;;;;;;;;;;5007791;28;20203;-79
2023/03/22 09:21:28;;;;;;;10.00;4.00;;;;;;;;;;5014081;28;20173;-80
2023/03/22 09:23:55;;;;;;;12.80;4.23;;;;;;;;;;4996921;28;20177;-79
2023/03/22 09:26:21;;;;;;;13.67;4.00;;;;;;;;;;4996703;28;20217;-76
2023/03/22 09:28:48;;;;;;;9.30;3.97;;;;;;;;;;4996332;28;20182;-77
2023/03/22 09:31:14;;;;;;;10.03;3.73;;;;;;;;;;4996459;28;20209;-77
2023/03/22 09:33:40;;;;;;;9.37;3.27;;;;;;;;;;4996418;28;20200;-77
2023/03/22 09:36:08;;;;;;;7.07;3.20;;;;;;;;;;4999878;28;20217;-77
2023/03/22 09:38:35;;;;;;;8.70;3.20;;;;;;;;;;5016260;28;20227;-77
2023/03/22 09:41:12;;;;;;;9.27;3.40;;;;;;;;;;5001907;28;20230;-77
2023/03/22 09:43:41;;;;;;;10.87;3.10;;;;;;;;;;5017074;28;20176;-84
2023/03/22 09:46:21;;;;;;;8.83;2.80;;;;;;;;;;5012974;28;20188;-84
2023/03/22 09:48:49;;;;;;;12.07;3.73;;;;;;;;;;5019332;28;20176;-84
2023/03/22 09:51:21;;;;;;;9.70;3.00;;;;;;;;;;5019096;28;20192;-83
2023/03/22 09:53:47;;;;;;;10.17;3.40;;;;;;;;;;5036269;28;20193;-83
2023/03/22 09:56:16;;;;;;;10.37;3.23;;;;;;;;;;5000035;28;20217;-84
2023/03/22 09:58:50;;;;;;;7.07;2.97;;;;;;;;;;5012930;28;20227;-84
2023/03/22 10:01:21;;;;;;;9.20;3.43;;;;;;;;;;5025740;28;20250;-84
2023/03/22 10:03:59;;;;;;;10.03;2.83;;;;;;;;;;5019647;28;20226;-83
2023/03/22 10:06:26;;;;;;;7.13;2.57;;;;;;;;;;5018271;28;20228;-84
2023/03/22 10:08:52;;;;;;;7.93;2.33;;;;;;;;;;5019124;28;20207;-83
2023/03/22 10:11:27;;;;;;;6.43;2.80;;;;;;;;;;5019172;28;20188;-84
2023/03/22 10:13:59;;;;;;;10.10;3.00;;;;;;;;;;5002552;28;20184;-84
2023/03/22 10:16:28;;;;;;;10.70;3.03;;;;;;;;;;5012556;28;20215;-78
2023/03/22 10:18:57;;;;;;;10.87;3.13;;;;;;;;;;5008547;28;20205;-78
2023/03/22 10:21:23;;;;;;;10.77;2.67;;;;;;;;;;5024794;28;20208;-77
2023/03/22 10:23:58;;;;;;;7.47;2.57;;;;;;;;;;5000762;28;20216;-78
2023/03/22 10:26:29;;;;;;;9.73;3.00;;;;;;;;;;5015553;28;20188;-77
2023/03/22 10:29:11;;;;;;;8.80;2.60;;;;;;;;;;5032647;28;20189;-77
2023/03/22 10:31:38;;;;;;;10.87;3.10;;;;;;;;;;5018837;28;20192;-77
2023/03/22 10:34:15;;;;;;;9.87;2.77;;;;;;;;;;5018804;28;20202;-82
2023/03/22 10:36:42;;;;;;;7.43;2.53;;;;;;;;;;5018502;28;20253;-82
2023/03/22 10:39:15;;;;;;;7.33;2.60;;;;;;;;;;5035412;28;20185;-83
2023/03/22 10:41:42;;;;;;;8.07;2.50;;;;;;;;;;5018830;28;20226;-82
2023/03/22 10:44:12;;;;;;;9.87;2.33;;;;;;;;;;5035924;28;20173;-82
2023/03/22 10:46:39;;;;;;;8.57;3.13;;;;;;;;;;5018373;28;20214;-82
2023/03/22 10:49:06;;;;;;;8.43;2.67;;;;;;;;;;5012456;28;20189;-83
2023/03/22 10:51:36;;;;;;;8.00;2.57;;;;;;;;;;4998284;28;20181;-80
2023/03/22 10:54:04;;;;;;;12.00;3.10;;;;;;;;;;5016310;28;20231;-80
2023/03/22 10:56:30;;;;;;;9.70;2.77;;;;;;;;;;4999014;28;20292;-79
2023/03/22 10:58:56;;;;;;;13.13;3.27;;;;;;;;;;5011633;28;20188;-80
2023/03/22 11:01:32;;;;;;;9.57;3.20;;;;;;;;;;5018965;28;20177;-80
2023/03/22 11:04:08;;;;;;;8.23;2.63;;;;;;;;;;5018344;28;20184;-80
2023/03/22 11:06:37;;;;;;;7.00;2.70;;;;;;;;;;5035553;28;20191;-80
2023/03/22 11:09:11;;;;;;;11.13;2.80;;;;;;;;;;5034819;28;20191;-79
2023/03/22 11:11:40;;;;;;;7.07;2.80;;;;;;;;;;5034276;28;20184;-79
2023/03/22 11:14:08;;;;;;;6.90;2.80;;;;;;;;;;4998612;28;20235;-80
2023/03/22 11:16:44;;;;;;;6.93;2.83;;;;;;;;;;5012525;28;20228;-79
2023/03/22 11:19:14;;;;;;;8.73;3.20;;;;;;;;;;5016870;28;20219;-79
2023/03/22 11:21:42;;;;;;;10.20;3.00;;;;;;;;;;5034695;28;20215;-79
2023/03/22 11:24:12;;;;;;;11.17;2.80;;;;;;;;;;5010268;28;20181;-83
2023/03/22 11:26:38;;;;;;;9.23;3.40;;;;;;;;;;5016783;28;20193;-83
2023/03/22 11:29:06;;;;;;;9.57;2.87;;;;;;;;;;5017582;28;20185;-82
2023/03/22 11:31:51;;;;;;;8.63;2.90;;;;;;;;;;5018482;28;20238;-83
2023/03/22 11:34:18;;;;;;;9.20;3.43;;;;;;;;;;5003515;28;20196;-83
2023/03/22 11:36:46;;;;;;;8.83;3.07;;;;;;;;;;5016723;28;20216;-83
2023/03/22 11:39:12;;;;;;;6.13;3.00;;;;;;;;;;5018055;28;20192;-83
2023/03/22 11:41:40;;;;;;;9.27;3.10;;;;;;;;;;5017856;28;20187;-83
2023/03/22 11:44:09;;;;;;;8.07;3.00;;;;;;;;;;5016488;28;20185;-83
2023/03/22 11:46:36;;;;;;;7.43;2.70;;;;;;;;;;5016834;28;20192;-83
2023/03/22 11:49:04;;;;;;;8.77;2.70;;;;;;;;;;4997675;28;20287;-83
2023/03/22 11:51:33;;;;;;;7.60;2.47;;;;;;;;;;4997983;28;20193;-83
2023/03/22 11:54:02;;;;;;;6.40;2.50;;;;;;;;;;4998517;28;20185;-83
2023/03/22 11:56:29;;;;;;;5.83;2.33;;;;;;;;;;5005332;28;20238;-80
2023/03/22 11:58:58;;;;;;;9.77;2.70;;;;;;;;;;5017260;28;20264;-79
2023/03/22 12:01:36;;;;;;;7.20;2.63;;;;;;;;;;5030415;28;20185;-80
2023/03/22 12:04:04;;;;;;;6.43;2.30;;;;;;;;;;5015755;28;20266;-79
2023/03/22 12:06:35;;;;;;;8.83;2.90;;;;;;;;;;5034250;28;20225;-80
2023/03/22 12:09:22;;;;;;;4.43;2.70;;;;;;;;;;5016380;28;20211;-80
2023/03/22 12:11:49;;;;;;;4.97;2.50;;;;;;;;;;4967909;28;20200;-80
2023/03/22 12:14:21;;;;;;;7.23;2.90;;;;;;;;;;5034677;28;20207;-83
2023/03/22 12:16:50;;;;;;;6.10;2.47;;;;;;;;;;5015785;28;20239;-83
2023/03/22 12:19:34;;;;;;;7.67;3.10;;;;;;;;;;5015802;28;20185;-84
2023/03/22 12:22:00;;;;;;;5.53;2.53;;;;;;;;;;4997246;28;20216;-84
2023/03/22 12:24:28;;;;;;;7.40;2.80;;;;;;;;;;4981027;28;20259;-83
2023/03/22 12:26:55;;;;;;;8.33;2.77;;;;;;;;;;4997076;28;20181;-84
2023/03/22 12:29:21;;;;;;;7.57;2.50;;;;;;;;;;4997349;28;20184;-81
2023/03/22 12:31:56;;;;;;;6.80;2.60;;;;;;;;;;4996872;28;20192;-80
2023/03/22 12:34:24;;;;;;;3.97;2.60;;;;;;;;;;5013299;28;20186;-80
2023/03/22 12:36:53;;;;;;;8.70;2.70;;;;;;;;;;5030425;28;20639;-80
2023/03/22 12:39:23;;;;;;;7.17;2.63;;;;;;;;;;5013216;28;20185;-80
2023/03/22 12:41:50;;;;;;;9.20;2.97;;;;;;;;;;5032017;28;20184;-80
2023/03/22 12:44:18;;;;;;;6.47;2.53;;;;;;;;;;5054157;28;20225;-80
2023/03/22 12:46:53;;;;;;;7.30;2.90;;;;;;;;;;5036776;28;20199;-77
2023/03/22 12:49:27;;;;;;;8.73;3.27;;;;;;;;;;5053986;22;20249;-77
2023/03/22 12:51:54;;;;;;;6.17;2.40;;;;;;;;;;5012888;28;20181;-78
2023/03/22 12:54:23;;;;;;;4.90;2.50;;;;;;;;;;5012868;28;20178;-78
2023/03/22 12:56:50;;;;;;;6.63;2.80;;;;;;;;;;5012993;28;20213;-78
2023/03/22 12:59:29;;;;;;;6.03;2.83;;;;;;;;;;5013067;28;20176;-78
2023/03/22 13:02:00;;;;;;;6.57;2.30;;;;;;;;;;5013039;28;20255;-78
2023/03/22 13:04:32;;;;;;;5.27;2.27;;;;;;;;;;5014404;28;20223;-78
2023/03/22 13:07:09;;;;;;;6.27;2.93;;;;;;;;;;5022965;28;20188;-78
2023/03/22 13:09:35;;;;;;;6.37;2.50;;;;;;;;;;5028606;28;20188;-78
2023/03/22 13:12:17;;;;;;;6.40;2.60;;;;;;;;;;5013265;28;20276;-78
2023/03/22 13:14:54;;;;;;;8.77;2.87;;;;;;;;;;5024125;28;20178;-78
2023/03/22 13:17:23;;;;;;;7.40;2.83;;;;;;;;;;5019564;28;20177;-78
2023/03/22 13:19:59;;;;;;;5.67;2.43;;;;;;;;;;5019920;28;20230;-84
2023/03/22 13:22:37;;;;;;;5.43;2.37;;;;;;;;;;5019930;28;20172;-84
2023/03/22 13:25:13;;;;;;;7.40;2.53;;;;;;;;;;5037376;28;20183;-85
2023/03/22 13:27:45;;;;;;;6.10;2.87;;;;;;;;;;5033217;28;20188;-84
2023/03/22 13:30:14;;;;;;;6.80;2.50;;;;;;;;;;5000288;28;20177;-85
2023/03/22 13:32:44;;;;;;;8.57;2.50;;;;;;;;;;5000232;28;20178;-85
2023/03/22 13:35:26;;;;;;;7.13;2.60;;;;;;;;;;5000548;28;20205;-85
2023/03/22 13:37:53;;;;;;;6.07;2.80;;;;;;;;;;5005418;28;20189;-84
2023/03/22 13:40:23;;;;;;;4.93;2.30;;;;;;;;;;5019390;28;20189;-85
2023/03/22 13:42:50;;;;;;;4.37;2.30;;;;;;;;;;5020090;28;20181;-84
2023/03/22 13:45:30;;;;;;;6.07;2.80;;;;;;;;;;5000655;28;20216;-84
2023/03/22 13:48:03;;;;;;;7.83;2.77;;;;;;;;;;4997445;28;20189;-84
2023/03/22 13:50:29;;;;;;;6.67;2.60;;;;;;;;;;4999868;28;20197;-84
2023/03/22 13:53:02;;;;;;;6.00;2.60;;;;;;;;;;4999773;28;20208;-81
2023/03/22 13:55:35;;;;;;;5.20;2.77;;;;;;;;;;5014715;28;20311;-80
2023/03/22 13:58:04;;;;;;;8.60;2.97;;;;;;;;;;5028254;28;20211;-81
2023/03/22 14:00:30;;;;;;;4.13;2.50;;;;;;;;;;5002209;28;20193;-81
2023/03/22 14:03:00;;;;;;;8.30;2.90;;;;;;;;;;5019365;28;20267;-82
2023/03/22 14:05:29;;;;;;;7.23;2.90;;;;;;;;;;5019740;28;20184;-80
2023/03/22 14:07:58;;;;;;;7.90;2.83;;;;;;;;;;5019529;28;20185;-81
2023/03/22 14:10:33;;;;;;;6.77;2.80;;;;;;;;;;5018699;28;20199;-78
2023/03/22 14:13:01;;;;;;;5.93;2.80;;;;;;;;;;5003884;28;20208;-79
2023/03/22 14:15:34;;;;;;;5.43;2.47;;;;;;;;;;4999427;28;20236;-79
2023/03/22 14:18:15;;;;;;;6.20;2.70;;;;;;;;;;4999233;28;20327;-78
2023/03/22 14:20:41;;;;;;;8.83;2.93;;;;;;;;;;5012582;28;20185;-78
2023/03/22 14:23:16;;;;;;;7.67;3.17;;;;;;;;;;5018870;28;21014;-79
2023/03/22 14:25:45;;;;;;;8.73;3.30;;;;;;;;;;5017413;28;20231;-78
2023/03/22 14:28:17;;;;;;;6.10;3.00;;;;;;;;;;5014950;28;20236;-78
2023/03/22 14:30:44;;;;;;;7.60;3.47;;;;;;;;;;5015564;28;20173;-78
2023/03/22 14:33:20;;;;;;;5.93;3.33;;;;;;;;;;5033369;28;20238;-79
2023/03/22 14:35:48;;;;;;;7.43;3.00;;;;;;;;;;5002982;28;20231;-79
2023/03/22 14:38:19;;;;;;;8.47;3.70;;;;;;;;;;5018315;28;20187;-79
2023/03/22 14:40:45;;;;;;;7.23;3.33;;;;;;;;;;5036139;28;20173;-78
2023/03/22 14:43:12;;;;;;;6.97;3.30;;;;;;;;;;5002336;28;20276;-85